Holyoke, CO

4:08 AM MST on February 13, 2016 (GMT -0700)
CODOT | | Change Station
CLOSE
Current Station
Personal Weather Station
Location: Holyoke, CO
Elevation: 3746 ft
Nearby Weather Stations

Elev 3746 ft 40.47 °N, 102.30 °W | Updated 56 minutes ago

Overcast
Overcast
29.0 °F
Feels Like 18 °F
N
14.0
Wind Variable Wind from NNW
Gusts 17.0 mph

Today
High -- | Low -- °F
--% Chance of Precip.
Yesterday
High -- | Low -- °F
Precip. -- in
Pressure 30.21 in
Visibility 7.0 miles
Clouds Mostly Cloudy 300 ft
Overcast 800 ft
Windchill 18 °F
Dew Point 28.0 °F
Humidity 96%
Rainfall in
Snow Depth Not available.
6:45 AM 5:21 PM
Waxing Crescent, 29% visible
METAR KHEQ 131055Z AUTO 17012G16KT 7SM BKN003 OVC008 01/00 A3021 RMK AO2
Pressure 30.21 in
Visibility 7.0 miles
Clouds Mostly Cloudy 300 ft
Overcast 800 ft
Windchill 18 °F
Dew Point 28.0 °F
Humidity 96%
Rainfall in
Snow Depth Not available.
6:45 AM 5:21 PM
Waxing Crescent, 29% visible
METAR KHEQ 131055Z AUTO 17012G16KT 7SM BKN003 OVC008 01/00 A3021 RMK AO2

10-Day Weather Forecast

Almanac

Astronomy

Feb. 13, 2016 Rise Set
Actual Time
Civil Twilight
Nautical Twilight
Astronomical Twilight
Moon
Length of Visible Light
Length of Day
Tomorrow will be .
, % of the Moon is Illuminated

Today's Extremes

State Highs State Lows

Community

WunderPhotos

Upload Photos

1,892,541 photos uploaded!

WunderBlog® & News

Nearby

Air Quality

  Air Quality AQ Index Pollutant
Not available.

Snow Depth

Station Depth Elevation

Earthquake Activity

City Distance Mag. Time & Date
Minimum magnitude displayed is 2.5.

Coastal Water Temperatures

Place Temperature

Stations

Nearby Weather Stations

Station Location Temp. Windchill Dew Point Humidity Wind Precip. Elev Updated Type
                   

Watches & Warnings

There are currently no watches in effect.